Time;durP1;ratioP1;P1;durP2;ratioP2;P2;SDS_P1;SDS_P2;PMS_P1;PMS_P2;Temp;Humidity;BMP_temperature;BMP_pressure;BME280_temperature;BME280_humidity;BME280_pressure;Samples;Min_cycle;Max_cycle;Signal;HPM_P1;HPM_P2
2022/09/11 11:43:30;;;;;;;11.80;6.90;;;;;;;12.63;80.80;99680.23;102721;1309;545581;-76
2022/09/11 11:46:34;;;;;;;9.20;6.00;;;;;;;12.78;80.82;99689.69;102353;1312;545206;-78
2022/09/11 11:49:09;;;;;;;6.50;5.30;;;;;;;12.90;80.36;99687.94;105562;1281;22557;-81
2022/09/11 11:51:50;;;;;;;8.20;5.60;;;;;;;13.06;79.96;99691.16;105946;1281;24290;-81
2022/09/11 11:54:36;;;;;;;8.60;5.30;;;;;;;13.21;79.58;99685.59;105750;1280;22720;-78
2022/09/11 11:57:11;;;;;;;9.30;6.10;;;;;;;13.33;79.11;99682.04;105192;1287;26063;-80
2022/09/11 12:00:03;;;;;;;6.60;5.30;;;;;;;13.39;78.69;99682.36;104064;1284;1646551;-80
2022/09/11 12:02:56;;;;;;;10.50;5.30;;;;;;;13.50;78.57;99683.63;105254;1282;22833;-80
2022/09/11 12:05:27;;;;;;;7.00;5.10;;;;;;;13.61;78.11;99679.56;105110;1284;25248;-81
2022/09/11 12:07:54;;;;;;;8.70;5.30;;;;;;;13.73;77.72;99679.72;105053;1285;22560;-80
2022/09/11 12:10:32;;;;;;;8.60;5.90;;;;;;;13.84;77.69;99670.84;105018;1287;22715;-80
2022/09/11 12:13:02;;;;;;;6.00;4.80;;;;;;;13.91;76.82;99672.03;105020;1284;26990;-81
2022/09/11 12:15:33;;;;;;;7.80;4.80;;;;;;;13.98;76.80;99667.70;104690;1287;24281;-81
2022/09/11 12:18:03;;;;;;;8.20;5.10;;;;;;;14.10;76.73;99669.59;105010;1286;22864;-80
2022/09/11 12:20:30;;;;;;;5.90;4.70;;;;;;;14.19;76.48;99672.82;104955;1287;22653;-81
2022/09/11 12:22:59;;;;;;;7.40;5.10;;;;;;;14.28;76.42;99673.22;105018;1287;24255;-81
2022/09/11 12:25:29;;;;;;;7.90;5.20;;;;;;;14.31;75.03;99673.48;105090;1287;23631;-80
2022/09/11 12:28:24;;;;;;;8.30;5.50;;;;;;;14.32;75.28;99677.33;105356;1284;24345;-81
2022/09/11 12:31:12;;;;;;;7.10;4.80;;;;;;;14.40;75.23;99678.44;105074;1284;22582;-82
2022/09/11 12:33:39;;;;;;;6.90;5.20;;;;;;;14.49;74.67;99674.41;105102;1284;22868;-82
2022/09/11 12:36:15;;;;;;;5.80;4.30;;;;;;;14.57;74.51;99671.98;104604;1290;25359;-79
2022/09/11 12:38:50;;;;;;;6.10;4.80;;;;;;;14.67;73.03;99672.85;104537;1294;22895;-80
2022/09/11 12:41:26;;;;;;;10.20;4.50;;;;;;;14.75;72.53;99667.97;105286;1283;24244;-87
2022/09/11 12:43:53;;;;;;;8.60;4.30;;;;;;;14.85;72.40;99665.50;105676;1284;23099;-88
2022/09/11 12:46:20;;;;;;;7.90;4.80;;;;;;;14.98;71.66;99663.60;105868;1284;22581;-89
2022/09/11 12:48:53;;;;;;;6.30;4.20;;;;;;;15.12;71.38;99663.18;106117;1284;25409;-89
2022/09/11 12:51:49;;;;;;;6.60;5.00;;;;;;;15.32;71.13;99660.99;105989;1284;22689;-89
2022/09/11 12:54:21;;;;;;;;;;;;;;;15.52;70.09;99662.34;106768;1278;22753;-89
2022/09/11 12:57:20;;;;;;;7.30;4.50;;;;;;;15.67;69.68;99660.13;108297;1276;22499;-91
2022/09/11 13:00:04;;;;;;;5.00;3.80;;;;;;;15.77;69.45;99654.52;108919;1279;22998;-91
2022/09/11 13:02:34;;;;;;;8.30;4.60;;;;;;;15.84;68.94;99657.95;109101;1277;22486;-89
2022/09/11 13:05:07;;;;;;;6.70;4.20;;;;;;;15.84;68.47;99653.35;109316;1277;22590;-91
2022/09/11 13:07:41;;;;;;;10.00;4.60;;;;;;;15.92;68.12;99655.52;108782;1277;22541;-90
2022/09/11 13:10:29;;;;;;;6.60;4.30;;;;;;;15.91;67.56;99655.55;108585;1277;22687;-89
2022/09/11 13:12:58;;;;;;;3.90;3.50;;;;;;;15.85;66.72;99651.54;108304;1278;22562;-87
2022/09/11 13:15:39;;;;;;;4.30;3.50;;;;;;;15.80;66.59;99650.34;108412;1277;23036;-91
2022/09/11 13:18:31;;;;;;;5.20;3.20;;;;;;;15.71;66.28;99654.59;108253;1277;22570;-89
2022/09/11 13:21:13;;;;;;;3.50;3.00;;;;;;;15.62;65.99;99658.38;107202;1278;25383;-91
2022/09/11 13:23:41;;;;;;;5.00;3.40;;;;;;;15.62;65.91;99655.00;106633;1278;22623;-89
2022/09/11 13:26:18;;;;;;;5.60;3.00;;;;;;;15.57;65.57;99659.96;108219;1277;22532;-90
2022/09/11 13:28:50;;;;;;;4.00;3.00;;;;;;;15.56;65.35;99656.14;109102;1278;22548;-89
2022/09/11 13:31:25;;;;;;;5.90;3.10;;;;;;;15.57;65.03;99654.98;107706;1284;23848;-90
2022/09/11 13:33:52;;;;;;;3.70;2.60;;;;;;;15.65;64.72;99658.58;107935;1282;22563;-90
2022/09/11 13:36:23;;;;;;;5.20;2.60;;;;;;;15.78;64.39;99660.17;105942;1282;22954;-84
2022/09/11 13:38:59;;;;;;;4.40;2.90;;;;;;;15.90;63.54;99661.64;105585;1283;22532;-80
2022/09/11 13:41:29;;;;;;;4.90;2.50;;;;;;;16.01;63.96;99662.45;105489;1284;22556;-81
2022/09/11 13:43:59;;;;;;;5.10;2.90;;;;;;;16.11;62.96;99661.13;105296;1281;23929;-76
2022/09/11 13:46:30;;;;;;;4.70;2.60;;;;;;;16.18;62.76;99656.71;105647;1281;25607;-80
2022/09/11 13:49:09;;;;;;;7.40;3.00;;;;;;;16.33;63.21;99659.27;105361;1279;22539;-79
2022/09/11 13:51:45;;;;;;;6.50;3.20;;;;;;;16.55;61.49;99660.79;105738;1279;25264;-81
2022/09/11 13:54:16;;;;;;;9.30;3.00;;;;;;;16.64;60.96;99661.81;105804;1279;25372;-80
2022/09/11 13:57:11;;;;;;;5.70;3.10;;;;;;;16.70;60.50;99659.05;105779;1283;22639;-81
2022/09/11 13:59:43;;;;;;;6.00;3.00;;;;;;;16.79;59.60;99661.63;105745;1281;24220;-81
2022/09/11 14:02:25;;;;;;;6.90;2.60;;;;;;;16.75;58.46;99666.78;105719;1279;25409;-81
2022/09/11 14:05:08;;;;;;;5.10;2.20;;;;;;;16.66;57.23;99667.36;105591;1281;22687;-81
2022/09/11 14:07:54;;;;;;;2.70;2.10;;;;;;;16.58;56.86;99664.74;105963;1279;23583;-82
2022/09/11 14:10:33;;;;;;;1.80;1.60;;;;;;;16.49;56.80;99666.91;106114;1277;22696;-82
2022/09/11 14:13:12;;;;;;;3.70;1.70;;;;;;;16.43;56.64;99669.81;105844;1277;24310;-83
2022/09/11 14:15:47;;;;;;;1.80;1.60;;;;;;;16.38;56.24;99676.63;106042;1276;22544;-82
2022/09/11 14:18:25;;;;;;;6.10;2.20;;;;;;;16.28;55.17;99672.46;106043;1277;25393;-80
2022/09/11 14:20:55;;;;;;;2.00;1.70;;;;;;;16.19;55.24;99675.16;105877;1277;26504;-83
2022/09/11 14:23:26;;;;;;;3.10;1.70;;;;;;;16.09;55.64;99673.47;105554;1284;25273;-82
2022/09/11 14:26:24;;;;;;;3.70;1.90;;;;;;;16.07;56.42;99677.81;105927;1283;25592;-83
2022/09/11 14:28:55;;;;;;;3.70;1.90;;;;;;;16.00;56.11;99670.81;105172;1284;22559;-82
2022/09/11 14:31:39;;;;;;;6.80;2.10;;;;;;;16.00;56.20;99679.89;105885;1279;25387;-82
2022/09/11 14:34:22;;;;;;;3.90;2.00;;;;;;;15.98;56.66;99675.35;105361;1284;25250;-85
2022/09/11 14:36:49;;;;;;;4.10;2.00;;;;;;;15.96;56.44;99674.86;105140;1285;25327;-83
2022/09/11 14:39:25;;;;;;;4.70;2.00;;;;;;;15.91;56.60;99673.84;105184;1285;25694;-82
2022/09/11 14:41:54;;;;;;;5.40;1.90;;;;;;;15.85;56.56;99679.78;105181;1279;23406;-88
2022/09/11 14:44:25;;;;;;;3.50;1.70;;;;;;;15.78;56.83;99680.06;105778;1279;23658;-81
2022/09/11 14:46:53;;;;;;;2.70;1.80;;;;;;;15.75;56.94;99684.61;105257;1285;23979;-83
2022/09/11 14:49:22;;;;;;;5.00;1.90;;;;;;;15.71;56.29;99682.49;105202;1285;22558;-80
2022/09/11 14:51:58;;;;;;;3.80;2.00;;;;;;;15.68;56.60;99680.32;105437;1279;22934;-83
2022/09/11 14:54:29;;;;;;;4.60;2.00;;;;;;;15.68;56.67;99683.89;106923;1279;22567;-81
2022/09/11 14:56:58;;;;;;;2.00;1.70;;;;;;;15.70;56.85;99683.73;107228;1280;22612;-86
2022/09/11 14:59:29;;;;;;;3.10;1.90;;;;;;;15.72;56.44;99678.19;108224;1278;22489;-86
2022/09/11 15:01:57;;;;;;;5.50;2.20;;;;;;;15.73;56.14;99682.73;107595;1279;22590;-83
2022/09/11 15:04:26;;;;;;;4.40;1.90;;;;;;;15.72;54.54;99680.69;107666;1273;24313;-82
2022/09/11 15:06:55;;;;;;;2.60;1.90;;;;;;;15.67;53.53;99682.83;108062;1273;23934;-86
2022/09/11 15:09:23;;;;;;;3.40;2.10;;;;;;;15.59;52.66;99681.55;107676;1275;22564;-81
2022/09/11 15:11:51;;;;;;;4.30;2.70;;;;;;;15.56;53.05;99682.38;107166;1273;23029;-85
2022/09/11 15:14:19;;;;;;;4.20;2.10;;;;;;;15.53;52.36;99684.30;106827;1276;25376;-83
2022/09/11 15:17:16;;;;;;;4.50;1.80;;;;;;;15.45;52.43;99683.91;106649;1274;26558;-82
2022/09/11 15:19:48;;;;;;;4.00;1.90;;;;;;;15.41;52.65;99689.95;106931;1273;22862;-84
2022/09/11 15:22:16;;;;;;;2.70;2.00;;;;;;;15.41;53.24;99694.54;106632;1277;24228;-85
2022/09/11 15:24:42;;;;;;;3.80;2.10;;;;;;;15.41;52.95;99693.83;106949;1277;25364;-84
2022/09/11 15:27:10;;;;;;;3.10;2.00;;;;;;;15.37;53.12;99699.30;106712;1279;22522;-84
2022/09/11 15:29:38;;;;;;;8.90;1.80;;;;;;;15.33;53.19;99705.48;107372;1277;22998;-83
2022/09/11 15:32:06;;;;;;;4.60;1.80;;;;;;;15.27;53.12;99707.85;107864;1278;22577;-88
2022/09/11 15:34:37;;;;;;;5.60;2.30;;;;;;;15.25;53.60;99709.71;107445;1277;25473;-81
2022/09/11 15:37:05;;;;;;;6.40;2.30;;;;;;;15.21;53.55;99711.27;106218;1277;24236;-75
2022/09/11 15:39:32;;;;;;;4.70;1.50;;;;;;;15.18;53.24;99717.97;105934;1277;22644;-81
2022/09/11 15:42:00;;;;;;;5.80;2.00;;;;;;;15.12;52.65;99722.77;106385;1274;24847;-81
2022/09/11 15:44:28;;;;;;;3.30;2.80;;;;;;;15.09;52.46;99727.34;106417;1273;22527;-81
2022/09/11 15:46:57;;;;;;;4.00;1.90;;;;;;;15.06;52.51;99733.83;106059;1274;25342;-83
2022/09/11 15:49:28;;;;;;;3.50;1.70;;;;;;;14.99;51.92;99729.66;106069;1274;23940;-79
2022/09/11 15:51:56;;;;;;;5.00;1.70;;;;;;;14.95;51.54;99730.72;106203;1273;25424;-78
2022/09/11 15:54:24;;;;;;;3.20;1.70;;;;;;;14.88;50.94;99734.17;106499;1277;22759;-77
2022/09/11 15:56:52;;;;;;;2.90;1.60;;;;;;;14.80;50.86;99737.46;106137;1277;22592;-81
2022/09/11 15:59:20;;;;;;;3.30;1.80;;;;;;;14.71;50.15;99740.05;106075;1277;22722;-80
2022/09/11 16:01:48;;;;;;;6.10;1.70;;;;;;;14.64;50.08;99744.73;106587;1276;22632;-77
2022/09/11 16:04:19;;;;;;;3.60;2.00;;;;;;;14.58;50.39;99742.64;105892;1276;22546;-83
2022/09/11 16:06:48;;;;;;;2.60;1.60;;;;;;;14.54;49.48;99743.70;105680;1282;24282;-78
2022/09/11 16:09:19;;;;;;;3.50;1.60;;;;;;;14.48;50.17;99748.52;105731;1283;25612;-81
2022/09/11 16:11:49;;;;;;;6.30;2.00;;;;;;;14.43;49.76;99749.73;105914;1282;22886;-83
2022/09/11 16:14:26;;;;;;;4.50;1.70;;;;;;;14.40;50.18;99756.23;106086;1279;24244;-83
2022/09/11 16:16:56;;;;;;;3.50;2.00;;;;;;;14.42;50.89;99763.43;105819;1278;24100;-77
2022/09/11 16:19:26;;;;;;;5.90;2.30;;;;;;;14.44;51.76;99767.08;105957;1278;22526;-83
2022/09/11 16:21:56;;;;;;;4.70;2.20;;;;;;;14.45;52.91;99767.56;105881;1278;22855;-81
2022/09/11 16:24:26;;;;;;;3.40;2.50;;;;;;;14.45;54.26;99767.92;105533;1279;22578;-81
2022/09/11 16:26:54;;;;;;;3.40;2.50;;;;;;;14.43;55.42;99774.34;105774;1279;24719;-83
2022/09/11 16:29:24;;;;;;;3.60;2.80;;;;;;;14.42;56.11;99777.77;105443;1279;22689;-82
2022/09/11 16:31:51;;;;;;;3.60;2.80;;;;;;;14.40;56.98;99782.79;105873;1279;22577;-80
2022/09/11 16:34:18;;;;;;;4.90;2.60;;;;;;;14.38;57.57;99782.17;105291;1282;24794;-78
2022/09/11 16:36:46;;;;;;;3.20;2.90;;;;;;;14.35;58.40;99784.53;105251;1284;25678;-82
2022/09/11 16:39:16;;;;;;;4.10;3.50;;;;;;;14.33;59.11;99783.58;105198;1287;25583;-81
2022/09/11 16:41:42;;;;;;;4.00;3.20;;;;;;;14.24;59.38;99783.50;105038;1283;22580;-77
2022/09/11 16:44:13;;;;;;;6.40;4.30;;;;;;;14.21;59.89;99786.27;105340;1283;22563;-80
2022/09/11 16:46:41;;;;;;;4.80;3.30;;;;;;;14.19;60.33;99784.59;105123;1284;25912;-80
2022/09/11 16:49:14;;;;;;;6.50;4.50;;;;;;;14.15;60.72;99779.77;105306;1282;25415;-76
2022/09/11 16:51:43;;;;;;;5.50;4.60;;;;;;;14.11;61.07;99790.48;105247;1279;22562;-78
2022/09/11 16:54:10;;;;;;;4.20;3.30;;;;;;;14.06;61.68;99793.67;105742;1279;26081;-82
2022/09/11 16:56:37;;;;;;;5.20;4.10;;;;;;;14.03;62.28;99792.71;105678;1275;22550;-78
2022/09/11 16:59:10;;;;;;;3.90;3.50;;;;;;;14.01;62.78;99792.79;106065;1273;24249;-76
2022/09/11 17:01:38;;;;;;;6.40;4.30;;;;;;;13.94;62.79;99795.83;106094;1273;24308;-79
2022/09/11 17:04:05;;;;;;;4.50;3.60;;;;;;;13.94;63.14;99805.91;105883;1273;22999;-80
2022/09/11 17:06:32;;;;;;;5.80;4.30;;;;;;;13.94;63.33;99817.06;106053;1273;23083;-80
2022/09/11 17:09:02;;;;;;;5.20;3.10;;;;;;;13.92;63.49;99821.02;106089;1273;25374;-79
2022/09/11 17:11:31;;;;;;;5.20;3.40;;;;;;;13.88;63.56;99819.55;105945;1274;22551;-78
2022/09/11 17:14:02;;;;;;;5.40;4.60;;;;;;;13.89;63.80;99824.31;106026;1273;22757;-78
2022/09/11 17:16:31;;;;;;;7.80;5.30;;;;;;;13.84;64.14;99827.45;106042;1273;25264;-76
2022/09/11 17:19:00;;;;;;;5.60;4.50;;;;;;;13.81;64.44;99831.45;105997;1273;25374;-74
2022/09/11 17:21:34;;;;;;;4.70;3.60;;;;;;;13.76;64.96;99832.33;105944;1273;25630;-74
2022/09/11 17:24:03;;;;;;;8.20;4.20;;;;;;;13.64;65.26;99835.88;106059;1273;25412;-74
2022/09/11 17:26:30;;;;;;;6.30;4.10;;;;;;;13.50;65.61;99835.92;106068;1274;22639;-76
2022/09/11 17:29:04;;;;;;;4.30;3.80;;;;;;;13.47;66.18;99841.48;105934;1273;22584;-76
2022/09/11 17:31:31;;;;;;;4.40;3.90;;;;;;;13.47;66.45;99840.06;106294;1274;23939;-76
2022/09/11 17:33:58;;;;;;;4.80;3.90;;;;;;;13.47;66.63;99846.09;106252;1274;22787;-76
2022/09/11 17:36:25;;;;;;;3.90;3.60;;;;;;;13.45;66.66;99843.86;106078;1274;22558;-75
2022/09/11 17:38:53;;;;;;;4.10;3.30;;;;;;;13.42;66.97;99843.92;105999;1274;25880;-74
2022/09/11 17:41:21;;;;;;;5.10;3.80;;;;;;;13.39;67.08;99848.80;106130;1273;22553;-77
2022/09/11 17:43:48;;;;;;;7.00;4.60;;;;;;;13.32;67.04;99844.91;106379;1274;22547;-75
2022/09/11 17:46:18;;;;;;;8.00;4.20;;;;;;;13.27;67.11;99836.59;105874;1279;24273;-80
2022/09/11 17:48:46;;;;;;;4.50;3.80;;;;;;;13.24;67.36;99837.56;105773;1279;24247;-78
2022/09/11 17:51:20;;;;;;;4.30;3.80;;;;;;;13.20;67.35;99835.38;105501;1279;23001;-77
2022/09/11 17:53:54;;;;;;;5.10;3.80;;;;;;;13.22;67.43;99830.70;105720;1279;25265;-77
2022/09/11 17:56:23;;;;;;;5.80;4.00;;;;;;;13.25;67.44;99831.68;105039;1284;23080;-75
2022/09/11 17:58:52;;;;;;;5.10;4.10;;;;;;;13.22;67.14;99837.95;104754;1284;25296;-73
2022/09/11 18:01:20;;;;;;;5.50;3.50;;;;;;;13.23;67.07;99842.55;105067;1285;24236;-74
2022/09/11 18:03:52;;;;;;;4.70;3.60;;;;;;;13.21;66.79;99844.72;105221;1281;24407;-77
2022/09/11 18:06:25;;;;;;;4.40;3.80;;;;;;;13.17;66.89;99839.52;105525;1281;25599;-76
2022/09/11 18:08:55;;;;;;;8.80;3.60;;;;;;;13.19;66.85;99839.83;105274;1284;25434;-79
2022/09/11 18:11:23;;;;;;;4.70;3.60;;;;;;;13.17;66.72;99843.95;104125;1290;26712;-76
2022/09/11 18:13:50;;;;;;;6.00;3.80;;;;;;;13.16;66.64;99843.96;104533;1287;22743;-77
2022/09/11 18:16:17;;;;;;;5.10;3.70;;;;;;;13.12;66.70;99847.08;104934;1287;23570;-76
2022/09/11 18:18:44;;;;;;;6.70;3.60;;;;;;;13.11;66.64;99851.53;104824;1287;22895;-74
2022/09/11 18:21:12;;;;;;;4.10;3.60;;;;;;;13.10;66.78;99852.45;104940;1287;22587;-76
2022/09/11 18:23:41;;;;;;;5.90;3.50;;;;;;;13.10;66.82;99854.92;104766;1287;24285;-81
2022/09/11 18:26:17;;;;;;;5.40;4.20;;;;;;;13.09;66.90;99848.77;104708;1287;24813;-75
2022/09/11 18:28:45;;;;;;;5.40;3.70;;;;;;;13.10;66.77;99854.21;105547;1276;25361;-76
2022/09/11 18:31:13;;;;;;;4.40;3.80;;;;;;;13.08;66.78;99859.05;106155;1274;22551;-72
2022/09/11 18:33:40;;;;;;;5.70;3.60;;;;;;;12.96;66.63;99844.87;106224;1273;22547;-81
2022/09/11 18:36:09;;;;;;;4.90;3.80;;;;;;;12.89;66.96;99838.20;106000;1274;24243;-74
2022/09/11 18:38:36;;;;;;;5.00;3.60;;;;;;;12.88;67.02;99841.92;106052;1273;25672;-78
2022/09/11 18:41:04;;;;;;;6.00;3.40;;;;;;;12.73;66.46;99837.36;106060;1274;22541;-77
2022/09/11 18:43:32;;;;;;;5.20;3.60;;;;;;;12.65;66.59;99836.16;106203;1273;22549;-73
2022/09/11 18:46:02;;;;;;;5.40;3.70;;;;;;;12.60;66.44;99840.54;106236;1273;22571;-78
2022/09/11 18:48:29;;;;;;;5.00;3.30;;;;;;;12.58;66.40;99838.46;106056;1275;24110;-75
2022/09/11 18:50:57;;;;;;;4.40;3.40;;;;;;;12.58;66.09;99838.12;105969;1276;22673;-78
2022/09/11 18:53:25;;;;;;;5.40;3.40;;;;;;;12.54;65.95;99836.99;106011;1276;24103;-77
2022/09/11 18:56:04;;;;;;;5.50;3.20;;;;;;;12.51;65.58;99845.70;106164;1273;22557;-76
2022/09/11 18:58:33;;;;;;;8.40;3.80;;;;;;;12.51;65.56;99848.19;106071;1274;22876;-77
2022/09/11 19:01:10;;;;;;;8.70;3.50;;;;;;;12.50;65.42;99850.50;105976;1274;24246;-78
2022/09/11 19:03:40;;;;;;;8.90;3.50;;;;;;;12.50;65.31;99848.20;105985;1274;22860;-79
2022/09/11 19:06:10;;;;;;;6.10;3.20;;;;;;;12.51;65.08;99848.89;105900;1275;22545;-77
2022/09/11 19:08:39;;;;;;;5.10;2.90;;;;;;;12.49;64.62;99845.22;105933;1274;22849;-77
2022/09/11 19:11:09;;;;;;;6.60;3.10;;;;;;;12.49;64.33;99845.95;106008;1275;24265;-79
2022/09/11 19:13:37;;;;;;;4.70;3.20;;;;;;;12.50;64.11;99847.34;105899;1275;22559;-78
2022/09/11 19:16:05;;;;;;;4.70;3.50;;;;;;;12.52;64.10;99844.11;106060;1274;22554;-75
2022/09/11 19:18:34;;;;;;;10.10;3.80;;;;;;;12.51;63.86;99841.29;105182;1282;24771;-78
2022/09/11 19:21:04;;;;;;;4.60;3.60;;;;;;;12.50;64.18;99842.21;105368;1282;25426;-77
2022/09/11 19:23:37;;;;;;;7.60;3.80;;;;;;;12.53;64.22;99843.90;105354;1281;22737;-76
2022/09/11 19:26:28;;;;;;;7.00;3.40;;;;;;;12.52;64.20;99843.56;104890;1287;22684;-79
2022/09/11 19:28:55;;;;;;;6.40;3.00;;;;;;;12.53;64.20;99847.61;105075;1287;22987;-76
2022/09/11 19:31:25;;;;;;;4.90;3.30;;;;;;;12.54;64.04;99848.81;104831;1287;22602;-81
2022/09/11 19:33:53;;;;;;;6.00;3.50;;;;;;;12.50;64.21;99846.63;105050;1287;25872;-78
2022/09/11 19:36:23;;;;;;;3.50;2.90;;;;;;;12.49;64.43;99850.35;104952;1279;22632;-76
2022/09/11 19:38:53;;;;;;;6.40;3.40;;;;;;;12.49;64.40;99849.30;105729;1279;25406;-77
2022/09/11 19:41:23;;;;;;;4.70;3.30;;;;;;;12.48;64.58;99847.55;105576;1282;22547;-78
2022/09/11 19:43:50;;;;;;;7.10;4.00;;;;;;;12.49;64.35;99849.66;105782;1275;24305;-80
2022/09/11 19:46:23;;;;;;;4.10;3.70;;;;;;;12.49;64.49;99847.18;105962;1273;23011;-79
2022/09/11 19:49:05;;;;;;;7.70;3.80;;;;;;;12.50;64.20;99846.09;106181;1273;22562;-75
2022/09/11 19:51:35;;;;;;;9.50;4.20;;;;;;;12.50;64.05;99848.02;106203;1273;24178;-78
2022/09/11 19:54:04;;;;;;;4.70;3.80;;;;;;;12.49;63.95;99847.35;106022;1273;26511;-77
2022/09/11 19:56:34;;;;;;;7.80;4.80;;;;;;;12.51;64.08;99848.70;105619;1280;24093;-77
2022/09/11 19:59:02;;;;;;;6.30;4.00;;;;;;;12.53;63.88;99848.84;105562;1282;22531;-75
2022/09/11 20:01:30;;;;;;;7.10;3.50;;;;;;;12.51;63.75;99845.17;105374;1282;25323;-74
2022/09/11 20:03:58;;;;;;;5.60;4.10;;;;;;;12.50;63.58;99842.21;105387;1284;25342;-81
2022/09/11 20:06:29;;;;;;;4.80;3.80;;;;;;;12.51;63.73;99845.52;105325;1282;27040;-78
2022/09/11 20:08:57;;;;;;;8.00;4.30;;;;;;;12.54;63.67;99844.05;105240;1284;22568;-79
2022/09/11 20:11:44;;;;;;;7.90;4.30;;;;;;;12.56;63.40;99845.05;105110;1284;22634;-78
2022/09/11 20:14:11;;;;;;;7.50;4.40;;;;;;;12.57;63.57;99843.25;105319;1281;22721;-77
2022/09/11 20:16:38;;;;;;;8.30;4.90;;;;;;;12.60;63.02;99843.00;105368;1274;25376;-77
2022/09/11 20:19:05;;;;;;;8.80;4.40;;;;;;;12.61;62.92;99843.51;105808;1276;22559;-77
2022/09/11 20:21:34;;;;;;;4.50;3.20;;;;;;;12.63;62.92;99842.75;105697;1276;22568;-77
2022/09/11 20:24:04;;;;;;;6.20;3.30;;;;;;;12.61;62.72;99839.27;105915;1276;25332;-77
2022/09/11 20:26:31;;;;;;;4.80;2.90;;;;;;;12.60;62.61;99839.30;105827;1277;22546;-78
2022/09/11 20:29:01;;;;;;;5.20;3.40;;;;;;;12.58;62.50;99839.02;105714;1279;22573;-77
2022/09/11 20:31:34;;;;;;;4.50;2.40;;;;;;;12.60;62.48;99843.89;105727;1276;22525;-77
2022/09/11 20:34:08;;;;;;;2.80;2.50;;;;;;;12.59;62.56;99846.02;105824;1276;23071;-77
2022/09/11 20:36:35;;;;;;;3.90;2.40;;;;;;;12.58;62.44;99847.65;105761;1275;22856;-75
2022/09/11 20:39:03;;;;;;;5.40;2.70;;;;;;;12.57;62.71;99845.04;106090;1274;25277;-77
2022/09/11 20:41:32;;;;;;;4.50;2.70;;;;;;;12.56;62.78;99843.10;105658;1279;22560;-76
2022/09/11 20:44:02;;;;;;;3.10;2.20;;;;;;;12.56;62.75;99844.71;105687;1281;22761;-78
2022/09/11 20:46:29;;;;;;;4.00;2.60;;;;;;;12.54;62.85;99847.05;105385;1279;22781;-75
2022/09/11 20:48:56;;;;;;;6.20;2.30;;;;;;;12.53;62.94;99845.14;105599;1282;22595;-75
2022/09/11 20:51:23;;;;;;;7.20;2.80;;;;;;;12.50;63.05;99849.80;105502;1279;22600;-78
2022/09/11 20:53:50;;;;;;;4.60;2.70;;;;;;;12.48;63.16;99849.31;105635;1279;22540;-76
2022/09/11 20:56:19;;;;;;;4.00;2.60;;;;;;;12.47;63.23;99849.70;105300;1279;23077;-76
2022/09/11 20:58:47;;;;;;;3.00;2.00;;;;;;;12.44;63.35;99849.07;105655;1279;22738;-77
2022/09/11 21:01:17;;;;;;;4.10;2.60;;;;;;;12.44;63.44;99845.72;105526;1281;22713;-73
2022/09/11 21:03:47;;;;;;;2.90;2.40;;;;;;;12.46;63.56;99850.09;105517;1281;25349;-76
2022/09/11 21:06:15;;;;;;;3.40;2.70;;;;;;;12.45;63.54;99846.41;105516;1281;22555;-74
2022/09/11 21:08:43;;;;;;;4.80;2.50;;;;;;;12.44;63.57;99846.79;104913;1287;25257;-77
2022/09/11 21:11:11;;;;;;;4.90;3.40;;;;;;;12.38;63.78;99846.23;104914;1286;22716;-74
2022/09/11 21:13:41;;;;;;;7.00;5.20;;;;;;;12.34;64.03;99850.55;104960;1284;26774;-72
2022/09/11 21:16:10;;;;;;;9.60;6.60;;;;;;;12.31;64.18;99849.04;105144;1285;23936;-77
2022/09/11 21:18:39;;;;;;;10.70;8.40;;;;;;;12.27;64.34;99848.10;105010;1279;25346;-77
2022/09/11 21:21:06;;;;;;;9.60;8.30;;;;;;;12.21;64.56;99848.21;105789;1278;25470;-77
2022/09/11 21:23:33;;;;;;;10.80;9.50;;;;;;;12.18;64.80;99850.59;105651;1278;25380;-78
2022/09/11 21:26:00;;;;;;;11.90;9.70;;;;;;;12.13;65.10;99848.23;105716;1275;22751;-76
2022/09/11 21:28:28;;;;;;;16.30;10.40;;;;;;;12.11;65.18;99854.80;106054;1273;22547;-76
2022/09/11 21:30:56;;;;;;;12.80;8.90;;;;;;;12.11;65.50;99856.75;105850;1275;22721;-79
2022/09/11 21:33:24;;;;;;;12.30;8.60;;;;;;;12.13;65.60;99858.83;105974;1273;22565;-77
2022/09/11 21:35:53;;;;;;;12.90;7.40;;;;;;;12.16;65.63;99860.16;106011;1273;22835;-79
2022/09/11 21:38:24;;;;;;;9.50;5.80;;;;;;;12.17;65.73;99859.98;106127;1273;23918;-78
2022/09/11 21:40:51;;;;;;;11.30;7.20;;;;;;;12.16;65.77;99860.34;105888;1278;22719;-75
2022/09/11 21:43:18;;;;;;;9.10;5.60;;;;;;;12.18;65.96;99861.72;105691;1278;24227;-76
2022/09/11 21:45:45;;;;;;;8.80;4.90;;;;;;;12.17;66.03;99864.55;105608;1277;22627;-77
2022/09/11 21:48:12;;;;;;;7.70;4.60;;;;;;;12.19;66.04;99868.23;105794;1277;25543;-77
2022/09/11 21:50:39;;;;;;;8.10;5.00;;;;;;;12.19;66.32;99871.75;105667;1278;22546;-75
2022/09/11 21:53:08;;;;;;;6.20;4.10;;;;;;;12.12;66.31;99866.24;105663;1278;22540;-76
2022/09/11 21:55:41;;;;;;;6.30;4.00;;;;;;;12.08;66.45;99866.16;105636;1280;22576;-77
2022/09/11 21:58:16;;;;;;;7.00;3.90;;;;;;;12.06;66.74;99865.50;105371;1276;25342;-75
2022/09/11 22:00:46;;;;;;;6.60;3.50;;;;;;;12.03;66.89;99868.40;105996;1274;25436;-77
2022/09/11 22:03:15;;;;;;;7.90;3.80;;;;;;;12.00;66.94;99871.83;106051;1274;22534;-73
2022/09/11 22:05:44;;;;;;;6.00;3.50;;;;;;;12.00;67.15;99873.05;105985;1274;22573;-78
2022/09/11 22:08:17;;;;;;;8.00;4.20;;;;;;;11.96;67.33;99877.39;106147;1273;25238;-76
2022/09/11 22:10:53;;;;;;;4.40;3.00;;;;;;;11.90;67.47;99868.69;105881;1273;22909;-78
2022/09/11 22:13:20;;;;;;;;;;;;;;;11.96;67.58;99878.78;105669;1278;23930;-74
2022/09/11 22:15:49;;;;;;;6.50;4.00;;;;;;;11.93;67.72;99879.39;105643;1279;22768;-77
2022/09/11 22:18:17;;;;;;;8.10;3.30;;;;;;;11.89;67.77;99875.75;105574;1279;22726;-79
2022/09/11 22:20:45;;;;;;;6.30;3.30;;;;;;;11.87;67.98;99880.91;105695;1279;25258;-80
2022/09/11 22:23:14;;;;;;;6.10;3.50;;;;;;;11.84;68.07;99877.99;105701;1279;22577;-79
2022/09/11 22:25:42;;;;;;;5.80;3.80;;;;;;;11.80;68.36;99883.90;105768;1279;25313;-78
2022/09/11 22:28:09;;;;;;;6.40;4.20;;;;;;;11.79;68.56;99885.70;105603;1279;22615;-76
2022/09/11 22:30:41;;;;;;;5.90;3.90;;;;;;;11.78;68.58;99881.84;105653;1279;24866;-78
2022/09/11 22:33:09;;;;;;;4.90;4.10;;;;;;;11.78;68.79;99887.49;106059;1276;22568;-77
2022/09/11 22:35:37;;;;;;;6.00;3.90;;;;;;;11.74;68.80;99887.74;105672;1279;25069;-77
2022/09/11 22:38:04;;;;;;;5.70;3.90;;;;;;;11.73;68.99;99886.16;105506;1279;23285;-78
2022/09/11 22:40:31;;;;;;;8.50;3.70;;;;;;;11.71;69.01;99885.33;105658;1279;25498;-75
2022/09/11 22:42:58;;;;;;;6.60;3.70;;;;;;;11.71;69.23;99888.85;105712;1279;25382;-76
2022/09/11 22:45:26;;;;;;;8.90;4.40;;;;;;;11.74;69.29;99886.16;105734;1279;24233;-77
2022/09/11 22:47:53;;;;;;;7.90;4.20;;;;;;;11.75;69.35;99880.83;105746;1278;22559;-78
2022/09/11 22:50:20;;;;;;;7.10;3.90;;;;;;;11.73;69.47;99879.65;105510;1278;22606;-78
2022/09/11 22:52:47;;;;;;;8.10;4.10;;;;;;;11.67;69.54;99877.13;105490;1281;22560;-76
2022/09/11 22:55:15;;;;;;;7.60;4.50;;;;;;;11.67;69.80;99881.89;106079;1273;22549;-77
2022/09/11 22:57:42;;;;;;;6.40;3.60;;;;;;;11.62;69.90;99879.00;106078;1274;22601;-77
2022/09/11 23:00:11;;;;;;;9.40;4.60;;;;;;;11.62;70.00;99882.34;106071;1274;22524;-79
2022/09/11 23:02:38;;;;;;;6.80;3.90;;;;;;;11.62;70.26;99880.58;106120;1273;22528;-75
2022/09/11 23:07:53;;;;;;;7.70;4.00;;;;;;;11.60;70.63;99885.75;105582;1279;22700;-74
2022/09/11 23:10:22;;;;;;;6.50;3.60;;;;;;;11.56;70.71;99885.47;105720;1279;26525;-78
2022/09/11 23:12:53;;;;;;;7.50;3.80;;;;;;;11.51;70.82;99884.87;105744;1279;22536;-79
2022/09/11 23:15:21;;;;;;;7.80;3.10;;;;;;;11.51;70.95;99887.34;105810;1279;25391;-79
2022/09/11 23:17:48;;;;;;;5.20;3.30;;;;;;;11.48;71.16;99892.17;105773;1279;22538;-75
2022/09/11 23:20:15;;;;;;;4.90;2.80;;;;;;;11.45;71.22;99890.45;105800;1279;22747;-72
2022/09/11 23:22:42;;;;;;;6.20;3.20;;;;;;;11.43;71.52;99890.33;105644;1276;22535;-75
2022/09/11 23:25:10;;;;;;;6.00;3.10;;;;;;;11.39;71.62;99888.66;105613;1281;23005;-75
2022/09/11 23:27:37;;;;;;;5.00;3.00;;;;;;;11.38;71.69;99894.31;105299;1282;23010;-71